sensor_id;sensor_type;location;lat;lon;timestamp;pressure;altitude;pressure_sealevel;temperature;humidity
56831;BME280;42713;42.676;23.352;2023-04-21T00:02:13;94375.50;;;11.34;58.44
56831;BME280;42713;42.676;23.352;2023-04-21T00:04:40;94376.28;;;11.35;58.11
56831;BME280;42713;42.676;23.352;2023-04-21T00:07:06;94369.66;;;11.22;57.89
56831;BME280;42713;42.676;23.352;2023-04-21T00:09:32;94367.88;;;11.28;58.15
56831;BME280;42713;42.676;23.352;2023-04-21T00:11:58;94366.03;;;11.28;58.94
56831;BME280;42713;42.676;23.352;2023-04-21T00:14:23;94359.44;;;11.20;59.07
56831;BME280;42713;42.676;23.352;2023-04-21T00:16:49;94367.00;;;11.17;59.25
56831;BME280;42713;42.676;23.352;2023-04-21T00:19:17;94365.69;;;11.14;59.12
56831;BME280;42713;42.676;23.352;2023-04-21T00:21:44;94364.81;;;10.98;59.52
56831;BME280;42713;42.676;23.352;2023-04-21T00:24:09;94365.06;;;10.97;60.77
56831;BME280;42713;42.676;23.352;2023-04-21T00:26:35;94365.50;;;10.83;60.15
56831;BME280;42713;42.676;23.352;2023-04-21T00:29:00;94370.94;;;10.71;60.27
56831;BME280;42713;42.676;23.352;2023-04-21T00:31:26;94366.16;;;10.63;60.70
56831;BME280;42713;42.676;23.352;2023-04-21T00:33:51;94362.47;;;10.59;60.78
56831;BME280;42713;42.676;23.352;2023-04-21T00:36:18;94368.97;;;10.51;61.22
56831;BME280;42713;42.676;23.352;2023-04-21T00:38:43;94379.09;;;10.42;60.97
56831;BME280;42713;42.676;23.352;2023-04-21T00:41:09;94379.38;;;10.46;61.06
56831;BME280;42713;42.676;23.352;2023-04-21T00:43:34;94371.78;;;10.45;60.96
56831;BME280;42713;42.676;23.352;2023-04-21T00:46:00;94368.91;;;10.46;60.51
56831;BME280;42713;42.676;23.352;2023-04-21T00:48:25;94369.25;;;10.55;60.36
56831;BME280;42713;42.676;23.352;2023-04-21T00:50:50;94361.06;;;10.46;61.88
56831;BME280;42713;42.676;23.352;2023-04-21T00:53:16;94368.06;;;10.40;62.65
56831;BME280;42713;42.676;23.352;2023-04-21T00:55:42;94357.78;;;10.34;63.30
56831;BME280;42713;42.676;23.352;2023-04-21T00:58:07;94365.25;;;10.20;63.60
56831;BME280;42713;42.676;23.352;2023-04-21T01:00:33;94359.91;;;10.09;63.87
56831;BME280;42713;42.676;23.352;2023-04-21T01:02:59;94359.31;;;9.97;63.91
56831;BME280;42713;42.676;23.352;2023-04-21T01:05:25;94365.00;;;9.94;64.22
56831;BME280;42713;42.676;23.352;2023-04-21T01:07:50;94358.16;;;9.88;64.26
56831;BME280;42713;42.676;23.352;2023-04-21T01:10:16;94364.75;;;9.95;63.84
56831;BME280;42713;42.676;23.352;2023-04-21T01:12:45;94356.44;;;9.99;63.60
56831;BME280;42713;42.676;23.352;2023-04-21T01:15:12;94360.63;;;10.00;62.76
56831;BME280;42713;42.676;23.352;2023-04-21T01:17:38;94347.91;;;10.08;61.78
56831;BME280;42713;42.676;23.352;2023-04-21T01:20:10;94355.50;;;10.10;61.66
56831;BME280;42713;42.676;23.352;2023-04-21T01:22:40;94358.88;;;10.10;61.09
56831;BME280;42713;42.676;23.352;2023-04-21T01:25:07;94356.31;;;10.16;60.91
56831;BME280;42713;42.676;23.352;2023-04-21T01:27:33;94354.50;;;10.16;60.70
56831;BME280;42713;42.676;23.352;2023-04-21T01:29:59;94355.31;;;10.22;60.09
56831;BME280;42713;42.676;23.352;2023-04-21T01:32:27;94358.28;;;10.31;60.08
56831;BME280;42713;42.676;23.352;2023-04-21T01:34:55;94357.25;;;10.32;59.72
56831;BME280;42713;42.676;23.352;2023-04-21T01:37:24;94347.31;;;10.34;59.73
56831;BME280;42713;42.676;23.352;2023-04-21T01:39:54;94357.59;;;10.40;59.80
56831;BME280;42713;42.676;23.352;2023-04-21T01:42:21;94356.56;;;10.41;59.90
56831;BME280;42713;42.676;23.352;2023-04-21T01:44:47;94354.00;;;10.47;60.97
56831;BME280;42713;42.676;23.352;2023-04-21T01:47:14;94356.09;;;10.50;61.47
56831;BME280;42713;42.676;23.352;2023-04-21T01:49:39;94345.06;;;10.42;61.38
56831;BME280;42713;42.676;23.352;2023-04-21T01:52:05;94341.28;;;10.33;61.71
56831;BME280;42713;42.676;23.352;2023-04-21T01:54:30;94350.38;;;10.25;61.12
56831;BME280;42713;42.676;23.352;2023-04-21T01:56:56;94342.44;;;10.15;61.16
56831;BME280;42713;42.676;23.352;2023-04-21T01:59:22;94346.16;;;10.19;61.00
56831;BME280;42713;42.676;23.352;2023-04-21T02:01:47;94350.09;;;10.22;60.83
56831;BME280;42713;42.676;23.352;2023-04-21T02:04:13;94346.91;;;10.15;60.85
56831;BME280;42713;42.676;23.352;2023-04-21T02:06:39;94347.38;;;10.11;60.66
56831;BME280;42713;42.676;23.352;2023-04-21T02:09:04;94345.88;;;10.16;60.80
56831;BME280;42713;42.676;23.352;2023-04-21T02:11:30;94353.75;;;10.21;60.72
56831;BME280;42713;42.676;23.352;2023-04-21T02:13:55;94349.06;;;10.23;60.51
56831;BME280;42713;42.676;23.352;2023-04-21T02:16:22;94344.63;;;10.23;60.66
56831;BME280;42713;42.676;23.352;2023-04-21T02:18:54;94340.66;;;10.21;60.64
56831;BME280;42713;42.676;23.352;2023-04-21T02:21:21;94346.41;;;10.18;60.49
56831;BME280;42713;42.676;23.352;2023-04-21T02:23:47;94344.03;;;10.16;60.79
56831;BME280;42713;42.676;23.352;2023-04-21T02:26:12;94345.56;;;10.12;60.70
56831;BME280;42713;42.676;23.352;2023-04-21T02:28:38;94335.09;;;10.12;60.59
56831;BME280;42713;42.676;23.352;2023-04-21T02:31:03;94342.91;;;10.07;61.31
56831;BME280;42713;42.676;23.352;2023-04-21T02:33:29;94343.94;;;10.06;61.32
56831;BME280;42713;42.676;23.352;2023-04-21T02:35:54;94339.44;;;10.01;61.39
56831;BME280;42713;42.676;23.352;2023-04-21T02:38:20;94341.53;;;9.99;61.63
56831;BME280;42713;42.676;23.352;2023-04-21T02:40:45;94350.16;;;10.00;61.38
56831;BME280;42713;42.676;23.352;2023-04-21T02:43:13;94343.81;;;9.95;61.72
56831;BME280;42713;42.676;23.352;2023-04-21T02:45:38;94346.22;;;9.97;61.23
56831;BME280;42713;42.676;23.352;2023-04-21T02:48:04;94350.72;;;10.02;61.61
56831;BME280;42713;42.676;23.352;2023-04-21T02:50:29;94349.59;;;9.97;61.74
56831;BME280;42713;42.676;23.352;2023-04-21T02:52:55;94348.56;;;9.99;61.39
56831;BME280;42713;42.676;23.352;2023-04-21T02:55:20;94347.47;;;9.94;61.34
56831;BME280;42713;42.676;23.352;2023-04-21T02:57:47;94344.09;;;9.94;61.38
56831;BME280;42713;42.676;23.352;2023-04-21T03:00:12;94344.97;;;10.05;61.63
56831;BME280;42713;42.676;23.352;2023-04-21T03:02:40;94343.41;;;10.04;61.66
56831;BME280;42713;42.676;23.352;2023-04-21T03:05:06;94347.53;;;10.00;61.75
56831;BME280;42713;42.676;23.352;2023-04-21T03:07:31;94342.66;;;10.08;61.61
56831;BME280;42713;42.676;23.352;2023-04-21T03:09:57;94341.91;;;10.13;61.70
56831;BME280;42713;42.676;23.352;2023-04-21T03:12:22;94345.81;;;10.10;61.81
56831;BME280;42713;42.676;23.352;2023-04-21T03:14:48;94341.66;;;10.15;61.59
56831;BME280;42713;42.676;23.352;2023-04-21T03:17:13;94350.84;;;10.17;61.22
56831;BME280;42713;42.676;23.352;2023-04-21T03:19:41;94346.91;;;10.15;61.69
56831;BME280;42713;42.676;23.352;2023-04-21T03:22:07;94345.88;;;10.16;61.92
56831;BME280;42713;42.676;23.352;2023-04-21T03:24:32;94346.59;;;10.11;62.06
56831;BME280;42713;42.676;23.352;2023-04-21T03:26:58;94353.16;;;10.13;61.81
56831;BME280;42713;42.676;23.352;2023-04-21T03:29:23;94345.81;;;10.10;62.43
56831;BME280;42713;42.676;23.352;2023-04-21T03:31:49;94349.22;;;10.11;64.32
56831;BME280;42713;42.676;23.352;2023-04-21T03:34:14;94350.75;;;10.07;63.59
56831;BME280;42713;42.676;23.352;2023-04-21T03:36:40;94355.69;;;10.03;63.57
56831;BME280;42713;42.676;23.352;2023-04-21T03:39:06;94362.00;;;10.07;63.21
56831;BME280;42713;42.676;23.352;2023-04-21T03:41:32;94360.44;;;10.06;62.84
56831;BME280;42713;42.676;23.352;2023-04-21T03:43:57;94359.09;;;10.04;64.15
56831;BME280;42713;42.676;23.352;2023-04-21T03:46:23;94365.66;;;10.06;64.09
56831;BME280;42713;42.676;23.352;2023-04-21T03:48:48;94367.78;;;10.09;64.45
56831;BME280;42713;42.676;23.352;2023-04-21T03:51:14;94368.03;;;10.08;63.87
56831;BME280;42713;42.676;23.352;2023-04-21T03:53:40;94366.44;;;10.07;63.10
56831;BME280;42713;42.676;23.352;2023-04-21T03:56:06;94374.00;;;10.03;63.47
56831;BME280;42713;42.676;23.352;2023-04-21T03:58:32;94371.94;;;10.05;63.85
56831;BME280;42713;42.676;23.352;2023-04-21T04:00:57;94374.47;;;10.00;63.65
56831;BME280;42713;42.676;23.352;2023-04-21T04:03:23;94373.59;;;9.89;63.43
56831;BME280;42713;42.676;23.352;2023-04-21T04:05:48;94380.16;;;9.92;63.56
56831;BME280;42713;42.676;23.352;2023-04-21T04:08:13;94379.88;;;9.88;63.74
56831;BME280;42713;42.676;23.352;2023-04-21T04:10:39;94388.00;;;9.92;62.88
56831;BME280;42713;42.676;23.352;2023-04-21T04:13:04;94392.22;;;9.93;63.09
56831;BME280;42713;42.676;23.352;2023-04-21T04:15:30;94401.47;;;10.01;62.98
56831;BME280;42713;42.676;23.352;2023-04-21T04:17:55;94391.25;;;9.99;62.67
56831;BME280;42713;42.676;23.352;2023-04-21T04:20:21;94392.88;;;10.05;62.85
56831;BME280;42713;42.676;23.352;2023-04-21T04:22:46;94399.69;;;10.06;61.98
56831;BME280;42713;42.676;23.352;2023-04-21T04:25:12;94397.34;;;10.10;62.10
56831;BME280;42713;42.676;23.352;2023-04-21T04:27:39;94398.69;;;10.12;61.65
56831;BME280;42713;42.676;23.352;2023-04-21T04:30:06;94404.50;;;10.20;61.66
56831;BME280;42713;42.676;23.352;2023-04-21T04:32:32;94402.63;;;10.15;62.11
56831;BME280;42713;42.676;23.352;2023-04-21T04:34:57;94409.25;;;10.23;61.61
56831;BME280;42713;42.676;23.352;2023-04-21T04:37:23;94416.03;;;10.19;62.18
56831;BME280;42713;42.676;23.352;2023-04-21T04:39:52;94415.72;;;10.15;61.62
56831;BME280;42713;42.676;23.352;2023-04-21T04:42:18;94419.72;;;10.23;61.78
56831;BME280;42713;42.676;23.352;2023-04-21T04:44:44;94417.94;;;10.28;61.38
56831;BME280;42713;42.676;23.352;2023-04-21T04:47:11;94414.03;;;10.31;61.88
56831;BME280;42713;42.676;23.352;2023-04-21T04:49:37;94415.06;;;10.30;61.57
56831;BME280;42713;42.676;23.352;2023-04-21T04:52:03;94422.19;;;10.35;61.90
56831;BME280;42713;42.676;23.352;2023-04-21T04:54:28;94416.50;;;10.38;61.92
56831;BME280;42713;42.676;23.352;2023-04-21T04:56:54;94424.63;;;10.41;61.78
56831;BME280;42713;42.676;23.352;2023-04-21T04:59:21;94422.09;;;10.47;61.48
56831;BME280;42713;42.676;23.352;2023-04-21T05:01:46;94417.69;;;10.52;61.44
56831;BME280;42713;42.676;23.352;2023-04-21T05:04:11;94415.63;;;10.59;61.64
56831;BME280;42713;42.676;23.352;2023-04-21T05:06:40;94420.13;;;10.64;62.19
56831;BME280;42713;42.676;23.352;2023-04-21T05:09:06;94419.13;;;10.70;62.63
56831;BME280;42713;42.676;23.352;2023-04-21T05:11:31;94423.13;;;10.78;62.08
56831;BME280;42713;42.676;23.352;2023-04-21T05:13:57;94417.59;;;10.74;61.92
56831;BME280;42713;42.676;23.352;2023-04-21T05:16:22;94423.19;;;10.88;61.79
56831;BME280;42713;42.676;23.352;2023-04-21T05:18:47;94435.81;;;10.97;62.88
56831;BME280;42713;42.676;23.352;2023-04-21T05:21:25;94425.09;;;10.98;61.81
56831;BME280;42713;42.676;23.352;2023-04-21T05:23:57;94424.84;;;11.00;61.09
56831;BME280;42713;42.676;23.352;2023-04-21T05:26:27;94421.41;;;10.94;60.85
56831;BME280;42713;42.676;23.352;2023-04-21T05:28:54;94418.72;;;10.89;60.87
56831;BME280;42713;42.676;23.352;2023-04-21T05:31:20;94420.59;;;10.94;61.80
56831;BME280;42713;42.676;23.352;2023-04-21T05:33:45;94418.50;;;10.90;61.43
56831;BME280;42713;42.676;23.352;2023-04-21T05:36:11;94422.22;;;11.00;61.89
56831;BME280;42713;42.676;23.352;2023-04-21T05:38:37;94420.47;;;11.11;61.66
56831;BME280;42713;42.676;23.352;2023-04-21T05:41:03;94424.72;;;11.22;61.69
56831;BME280;42713;42.676;23.352;2023-04-21T05:43:29;94418.41;;;11.18;61.11
56831;BME280;42713;42.676;23.352;2023-04-21T05:46:00;94423.97;;;11.27;60.57
56831;BME280;42713;42.676;23.352;2023-04-21T05:48:26;94422.44;;;11.36;60.29
56831;BME280;42713;42.676;23.352;2023-04-21T05:50:53;94414.78;;;11.29;59.73
56831;BME280;42713;42.676;23.352;2023-04-21T05:53:18;94427.94;;;11.34;59.73
56831;BME280;42713;42.676;23.352;2023-04-21T05:55:44;94418.50;;;11.33;59.87
56831;BME280;42713;42.676;23.352;2023-04-21T05:58:09;94409.88;;;11.43;59.75
56831;BME280;42713;42.676;23.352;2023-04-21T06:00:35;94420.41;;;11.48;59.61
56831;BME280;42713;42.676;23.352;2023-04-21T06:03:00;94409.88;;;11.43;59.17
56831;BME280;42713;42.676;23.352;2023-04-21T06:05:26;94414.84;;;11.40;59.72
56831;BME280;42713;42.676;23.352;2023-04-21T06:07:51;94415.13;;;11.38;59.18
56831;BME280;42713;42.676;23.352;2023-04-21T06:10:17;94403.75;;;11.22;59.82
56831;BME280;42713;42.676;23.352;2023-04-21T06:12:43;94431.28;;;11.25;60.39
56831;BME280;42713;42.676;23.352;2023-04-21T06:15:09;94418.13;;;11.14;60.78
56831;BME280;42713;42.676;23.352;2023-04-21T06:17:35;94424.38;;;11.08;60.60
56831;BME280;42713;42.676;23.352;2023-04-21T06:20:00;94405.78;;;11.10;61.15
56831;BME280;42713;42.676;23.352;2023-04-21T06:22:26;94412.13;;;11.19;61.25
56831;BME280;42713;42.676;23.352;2023-04-21T06:24:51;94424.91;;;11.10;61.16
56831;BME280;42713;42.676;23.352;2023-04-21T06:27:17;94423.13;;;11.16;61.43
56831;BME280;42713;42.676;23.352;2023-04-21T06:29:43;94416.25;;;11.10;61.53
56831;BME280;42713;42.676;23.352;2023-04-21T06:32:09;94413.91;;;11.13;61.70
56831;BME280;42713;42.676;23.352;2023-04-21T06:34:35;94402.91;;;11.11;61.21
56831;BME280;42713;42.676;23.352;2023-04-21T06:37:01;94405.00;;;11.14;62.10
56831;BME280;42713;42.676;23.352;2023-04-21T06:39:26;94413.75;;;11.30;61.68
56831;BME280;42713;42.676;23.352;2023-04-21T06:41:52;94424.50;;;11.29;61.25
56831;BME280;42713;42.676;23.352;2023-04-21T06:44:18;94409.06;;;11.32;61.50
56831;BME280;42713;42.676;23.352;2023-04-21T06:46:43;94405.63;;;11.27;61.89
56831;BME280;42713;42.676;23.352;2023-04-21T06:49:09;94405.88;;;11.25;61.69
56831;BME280;42713;42.676;23.352;2023-04-21T06:51:35;94400.34;;;11.21;61.94
56831;BME280;42713;42.676;23.352;2023-04-21T06:54:02;94410.31;;;11.25;61.90
56831;BME280;42713;42.676;23.352;2023-04-21T06:56:27;94391.13;;;11.19;62.11
56831;BME280;42713;42.676;23.352;2023-04-21T06:58:53;94412.44;;;11.28;61.82
56831;BME280;42713;42.676;23.352;2023-04-21T07:01:19;94416.09;;;11.27;61.82
56831;BME280;42713;42.676;23.352;2023-04-21T07:03:44;94393.03;;;11.29;61.99
56831;BME280;42713;42.676;23.352;2023-04-21T07:06:09;94391.03;;;11.51;61.61
56831;BME280;42713;42.676;23.352;2023-04-21T07:08:35;94413.38;;;11.54;61.19
56831;BME280;42713;42.676;23.352;2023-04-21T07:11:01;94399.75;;;11.62;60.93
56831;BME280;42713;42.676;23.352;2023-04-21T07:13:26;94399.25;;;11.71;60.29
56831;BME280;42713;42.676;23.352;2023-04-21T07:15:52;94405.84;;;11.83;60.37
56831;BME280;42713;42.676;23.352;2023-04-21T07:18:18;94404.31;;;11.93;60.37
56831;BME280;42713;42.676;23.352;2023-04-21T07:20:44;94394.91;;;12.02;59.85
56831;BME280;42713;42.676;23.352;2023-04-21T07:23:09;94397.03;;;12.10;59.61
56831;BME280;42713;42.676;23.352;2023-04-21T07:25:35;94386.56;;;12.16;59.28
56831;BME280;42713;42.676;23.352;2023-04-21T07:28:01;94386.84;;;12.24;59.32
56831;BME280;42713;42.676;23.352;2023-04-21T07:30:28;94387.59;;;12.09;59.48
56831;BME280;42713;42.676;23.352;2023-04-21T07:32:54;94389.72;;;12.18;59.92
56831;BME280;42713;42.676;23.352;2023-04-21T07:35:20;94392.88;;;12.25;60.19
56831;BME280;42713;42.676;23.352;2023-04-21T07:37:45;94396.03;;;12.27;58.99
56831;BME280;42713;42.676;23.352;2023-04-21T07:40:11;94376.34;;;12.24;59.61
56831;BME280;42713;42.676;23.352;2023-04-21T07:42:37;94395.75;;;12.23;58.72
56831;BME280;42713;42.676;23.352;2023-04-21T07:45:03;94401.00;;;12.28;59.06
56831;BME280;42713;42.676;23.352;2023-04-21T07:47:29;94388.94;;;12.48;58.42
56831;BME280;42713;42.676;23.352;2023-04-21T07:49:54;94397.09;;;12.52;58.69
56831;BME280;42713;42.676;23.352;2023-04-21T07:52:20;94395.00;;;12.43;58.37
56831;BME280;42713;42.676;23.352;2023-04-21T07:54:45;94404.19;;;12.51;57.82
56831;BME280;42713;42.676;23.352;2023-04-21T07:57:11;94391.59;;;12.53;58.22
56831;BME280;42713;42.676;23.352;2023-04-21T07:59:36;94394.22;;;12.69;57.30
56831;BME280;42713;42.676;23.352;2023-04-21T08:02:02;94389.72;;;12.69;56.96
56831;BME280;42713;42.676;23.352;2023-04-21T08:04:27;94396.06;;;12.73;56.80
56831;BME280;42713;42.676;23.352;2023-04-21T08:06:53;94396.56;;;12.70;57.42
56831;BME280;42713;42.676;23.352;2023-04-21T08:09:18;94407.59;;;12.62;57.48
56831;BME280;42713;42.676;23.352;2023-04-21T08:11:43;94395.25;;;12.68;57.78
56831;BME280;42713;42.676;23.352;2023-04-21T08:14:09;94395.53;;;12.76;57.06
56831;BME280;42713;42.676;23.352;2023-04-21T08:16:37;94393.69;;;12.92;56.19
56831;BME280;42713;42.676;23.352;2023-04-21T08:19:03;94396.56;;;12.96;56.38
56831;BME280;42713;42.676;23.352;2023-04-21T08:21:28;94391.81;;;13.08;56.02
56831;BME280;42713;42.676;23.352;2023-04-21T08:23:54;94410.50;;;13.12;55.05
56831;BME280;42713;42.676;23.352;2023-04-21T08:26:23;94391.50;;;13.26;54.96
56831;BME280;42713;42.676;23.352;2023-04-21T08:28:49;94390.19;;;13.28;54.69
56831;BME280;42713;42.676;23.352;2023-04-21T08:31:17;94388.91;;;13.20;55.10
56831;BME280;42713;42.676;23.352;2023-04-21T08:33:42;94388.34;;;13.29;54.97
56831;BME280;42713;42.676;23.352;2023-04-21T08:36:08;94383.09;;;13.39;54.99
56831;BME280;42713;42.676;23.352;2023-04-21T08:38:34;94374.91;;;13.51;54.12
56831;BME280;42713;42.676;23.352;2023-04-21T08:41:00;94388.09;;;13.46;53.58
56831;BME280;42713;42.676;23.352;2023-04-21T08:43:27;94386.25;;;13.41;53.60
56831;BME280;42713;42.676;23.352;2023-04-21T08:45:53;94389.38;;;13.38;54.00
56831;BME280;42713;42.676;23.352;2023-04-21T08:48:20;94383.88;;;13.39;54.40
56831;BME280;42713;42.676;23.352;2023-04-21T08:50:50;94380.41;;;13.54;53.47
56831;BME280;42713;42.676;23.352;2023-04-21T08:53:16;94369.63;;;13.51;53.82
56831;BME280;42713;42.676;23.352;2023-04-21T08:55:42;94401.22;;;13.51;53.21
56831;BME280;42713;42.676;23.352;2023-04-21T08:58:08;94392.25;;;13.52;53.69
56831;BME280;42713;42.676;23.352;2023-04-21T09:00:34;94380.41;;;13.60;53.84
56831;BME280;42713;42.676;23.352;2023-04-21T09:03:01;94378.50;;;13.70;52.72
56831;BME280;42713;42.676;23.352;2023-04-21T09:05:30;94371.09;;;13.78;53.61
56831;BME280;42713;42.676;23.352;2023-04-21T09:08:11;94368.16;;;13.84;53.35
56831;BME280;42713;42.676;23.352;2023-04-21T09:10:50;94360.03;;;13.86;52.94
56831;BME280;42713;42.676;23.352;2023-04-21T09:13:19;94376.00;;;14.00;52.44
56831;BME280;42713;42.676;23.352;2023-04-21T09:15:47;94372.06;;;13.97;51.42
56831;BME280;42713;42.676;23.352;2023-04-21T09:18:18;94379.91;;;14.08;51.93
56831;BME280;42713;42.676;23.352;2023-04-21T09:20:45;94368.34;;;14.04;51.41
56831;BME280;42713;42.676;23.352;2023-04-21T09:23:11;94351.75;;;14.03;51.10
56831;BME280;42713;42.676;23.352;2023-04-21T09:25:39;94350.97;;;14.03;51.15
56831;BME280;42713;42.676;23.352;2023-04-21T09:28:09;94335.16;;;14.03;51.22
56831;BME280;42713;42.676;23.352;2023-04-21T09:30:36;94340.41;;;14.08;51.07
56831;BME280;42713;42.676;23.352;2023-04-21T09:33:02;94335.94;;;14.08;49.97
56831;BME280;42713;42.676;23.352;2023-04-21T09:35:29;94336.47;;;14.05;49.60
56831;BME280;42713;42.676;23.352;2023-04-21T09:37:55;94337.75;;;14.08;49.55
56831;BME280;42713;42.676;23.352;2023-04-21T09:40:22;94336.63;;;14.19;47.99
56831;BME280;42713;42.676;23.352;2023-04-21T09:42:48;94345.81;;;14.27;48.67
56831;BME280;42713;42.676;23.352;2023-04-21T09:45:14;94339.72;;;14.31;49.01
56831;BME280;42713;42.676;23.352;2023-04-21T09:47:55;94328.00;;;14.48;47.68
56831;BME280;42713;42.676;23.352;2023-04-21T09:50:22;94333.94;;;14.69;48.43
56831;BME280;42713;42.676;23.352;2023-04-21T09:52:53;94325.66;;;14.76;48.37
56831;BME280;42713;42.676;23.352;2023-04-21T09:55:23;94313.94;;;14.92;47.12
56831;BME280;42713;42.676;23.352;2023-04-21T09:57:51;94328.91;;;14.97;46.70
56831;BME280;42713;42.676;23.352;2023-04-21T10:00:17;94329.28;;;14.85;45.73
56831;BME280;42713;42.676;23.352;2023-04-21T10:02:50;94320.13;;;14.77;46.38
56831;BME280;42713;42.676;23.352;2023-04-21T10:05:15;94342.97;;;14.87;45.66
56831;BME280;42713;42.676;23.352;2023-04-21T10:07:43;94323.97;;;14.90;46.13
56831;BME280;42713;42.676;23.352;2023-04-21T10:12:43;94306.59;;;14.84;46.93
56831;BME280;42713;42.676;23.352;2023-04-21T10:15:34;94307.91;;;14.87;47.76
56831;BME280;42713;42.676;23.352;2023-04-21T10:18:18;94317.31;;;14.98;47.48
56831;BME280;42713;42.676;23.352;2023-04-21T10:23:41;94298.03;;;14.98;48.96
56831;BME280;42713;42.676;23.352;2023-04-21T10:26:10;94314.66;;;14.98;48.49
56831;BME280;42713;42.676;23.352;2023-04-21T10:31:34;94306.50;;;14.94;49.01
56831;BME280;42713;42.676;23.352;2023-04-21T10:47:49;94304.66;;;14.95;48.77
56831;BME280;42713;42.676;23.352;2023-04-21T10:50:26;94319.88;;;15.03;47.36
56831;BME280;42713;42.676;23.352;2023-04-21T10:52:58;94310.94;;;14.99;46.89
56831;BME280;42713;42.676;23.352;2023-04-21T10:55:30;94311.13;;;15.08;46.96
56831;BME280;42713;42.676;23.352;2023-04-21T10:57:56;94317.13;;;15.14;46.73
56831;BME280;42713;42.676;23.352;2023-04-21T11:00:24;94304.50;;;15.10;46.39
56831;BME280;42713;42.676;23.352;2023-04-21T11:03:04;94309.72;;;15.16;43.94
56831;BME280;42713;42.676;23.352;2023-04-21T11:05:38;94312.03;;;15.22;43.63
56831;BME280;42713;42.676;23.352;2023-04-21T11:10:49;94302.25;;;15.23;43.28
56831;BME280;42713;42.676;23.352;2023-04-21T11:13:15;94308.56;;;15.27;44.90
56831;BME280;42713;42.676;23.352;2023-04-21T11:15:40;94297.38;;;15.35;45.84
56831;BME280;42713;42.676;23.352;2023-04-21T11:18:06;94298.53;;;15.48;47.59
56831;BME280;42713;42.676;23.352;2023-04-21T11:20:33;94291.56;;;15.57;48.51
56831;BME280;42713;42.676;23.352;2023-04-21T11:22:58;94295.06;;;15.72;48.75
56831;BME280;42713;42.676;23.352;2023-04-21T11:25:24;94294.13;;;15.82;49.29
56831;BME280;42713;42.676;23.352;2023-04-21T11:27:57;94287.44;;;16.09;49.22
56831;BME280;42713;42.676;23.352;2023-04-21T11:30:31;94284.22;;;16.12;48.41
56831;BME280;42713;42.676;23.352;2023-04-21T11:33:00;94287.78;;;16.21;48.44
56831;BME280;42713;42.676;23.352;2023-04-21T11:35:26;94290.06;;;16.28;47.09
56831;BME280;42713;42.676;23.352;2023-04-21T11:37:51;94293.97;;;16.30;46.81
56831;BME280;42713;42.676;23.352;2023-04-21T11:40:17;94302.72;;;16.12;47.52
56831;BME280;42713;42.676;23.352;2023-04-21T11:42:44;94294.66;;;16.03;48.35
56831;BME280;42713;42.676;23.352;2023-04-21T11:45:16;94294.38;;;16.05;48.71
56831;BME280;42713;42.676;23.352;2023-04-21T11:47:42;94294.59;;;16.08;49.05
56831;BME280;42713;42.676;23.352;2023-04-21T11:50:08;94298.84;;;16.04;47.87
56831;BME280;42713;42.676;23.352;2023-04-21T11:52:35;94291.94;;;16.08;47.41
56831;BME280;42713;42.676;23.352;2023-04-21T11:55:10;94296.06;;;16.14;46.85
56831;BME280;42713;42.676;23.352;2023-04-21T11:57:38;94292.84;;;16.17;45.51
56831;BME280;42713;42.676;23.352;2023-04-21T12:00:05;94296.28;;;16.18;42.67
56831;BME280;42713;42.676;23.352;2023-04-21T12:02:31;94298.28;;;16.07;42.56
56831;BME280;42713;42.676;23.352;2023-04-21T12:05:02;94294.13;;;15.82;41.49
56831;BME280;42713;42.676;23.352;2023-04-21T12:07:28;94297.72;;;15.91;42.62
56831;BME280;42713;42.676;23.352;2023-04-21T12:09:53;94290.53;;;15.97;42.24
56831;BME280;42713;42.676;23.352;2023-04-21T12:12:21;94295.88;;;15.92;43.33
56831;BME280;42713;42.676;23.352;2023-04-21T12:14:49;94290.09;;;15.90;43.29
56831;BME280;42713;42.676;23.352;2023-04-21T12:17:15;94292.59;;;16.00;43.31
56831;BME280;42713;42.676;23.352;2023-04-21T12:19:41;94305.41;;;16.07;42.96
56831;BME280;42713;42.676;23.352;2023-04-21T12:22:08;94301.34;;;16.14;42.25
56831;BME280;42713;42.676;23.352;2023-04-21T12:24:35;94306.31;;;16.35;41.90
56831;BME280;42713;42.676;23.352;2023-04-21T12:27:00;94290.97;;;16.37;41.99
56831;BME280;42713;42.676;23.352;2023-04-21T12:29:27;94302.78;;;16.26;42.49
56831;BME280;42713;42.676;23.352;2023-04-21T12:31:52;94297.69;;;16.29;42.79
56831;BME280;42713;42.676;23.352;2023-04-21T12:34:18;94294.59;;;16.41;42.92
56831;BME280;42713;42.676;23.352;2023-04-21T12:36:43;94291.38;;;16.44;42.43
56831;BME280;42713;42.676;23.352;2023-04-21T12:39:10;94297.72;;;16.43;42.86
56831;BME280;42713;42.676;23.352;2023-04-21T12:41:43;94291.31;;;16.49;42.93
56831;BME280;42713;42.676;23.352;2023-04-21T12:44:09;94292.47;;;16.57;42.73
56831;BME280;42713;42.676;23.352;2023-04-21T12:46:35;94291.91;;;16.60;42.25
56831;BME280;42713;42.676;23.352;2023-04-21T12:49:00;94294.69;;;16.69;41.32
56831;BME280;42713;42.676;23.352;2023-04-21T12:51:27;94282.88;;;16.47;41.86
56831;BME280;42713;42.676;23.352;2023-04-21T12:53:53;94281.84;;;16.29;41.65
56831;BME280;42713;42.676;23.352;2023-04-21T12:56:19;94288.06;;;16.20;43.11
56831;BME280;42713;42.676;23.352;2023-04-21T12:58:44;94295.00;;;16.15;43.42
56831;BME280;42713;42.676;23.352;2023-04-21T13:01:12;94295.75;;;16.35;43.52
56831;BME280;42713;42.676;23.352;2023-04-21T13:03:39;94288.69;;;16.63;41.73
56831;BME280;42713;42.676;23.352;2023-04-21T13:06:05;94285.44;;;17.00;41.37
56831;BME280;42713;42.676;23.352;2023-04-21T13:08:30;94296.31;;;17.12;39.97
56831;BME280;42713;42.676;23.352;2023-04-21T13:10:55;94275.16;;;17.12;39.77
56831;BME280;42713;42.676;23.352;2023-04-21T13:13:21;94291.41;;;17.05;39.80